Time;durP1;ratioP1;P1;durP2;ratioP2;P2;SDS_P1;SDS_P2;PMS_P1;PMS_P2;Temp;Humidity;BMP_temperature;BMP_pressure;BME280_temperature;BME280_humidity;BME280_pressure;Samples;Min_cycle;Max_cycle;Signal;HPM_P1;HPM_P2
2021/12/28 00:00:10;;;;;;;24.70;13.97;;;11.60;95.30;;;11.56;66.44;94307.47;5001928;28;20917;-58
2021/12/28 00:02:38;;;;;;;29.87;15.60;;;11.50;95.20;;;11.47;66.98;94310.06;5000408;28;20488;-59
2021/12/28 00:05:06;;;;;;;30.17;16.73;;;11.40;95.60;;;11.40;67.03;94306.44;4998076;28;20455;-58
2021/12/28 00:07:34;;;;;;;28.87;16.23;;;11.30;95.70;;;11.35;66.88;94307.88;5002055;28;20556;-58
2021/12/28 00:10:02;;;;;;;33.67;16.77;;;11.30;95.90;;;11.27;67.41;94308.66;5005072;28;20456;-59
2021/12/28 00:12:33;;;;;;;34.33;16.20;;;11.20;96.10;;;11.22;67.63;94305.69;5001150;28;20858;-58
2021/12/28 00:15:06;;;;;;;31.80;15.10;;;11.20;96.20;;;11.19;67.81;94313.91;5002483;28;20453;-59
2021/12/28 00:20:19;;;;;;;26.27;15.13;;;11.10;96.60;;;11.07;68.03;94305.44;5000673;28;20489;-57
2021/12/28 00:22:46;;;;;;;29.73;13.33;;;11.00;96.50;;;11.04;68.32;94308.38;4995722;28;20479;-57
2021/12/28 00:25:15;;;;;;;26.80;14.23;;;11.00;96.70;;;11.00;68.16;94314.94;4999619;28;20465;-57
2021/12/28 00:27:43;;;;;;;27.77;14.80;;;11.00;96.70;;;10.94;68.43;94319.03;5003770;28;20489;-57
2021/12/28 00:30:11;;;;;;;18.63;13.27;;;10.90;96.70;;;10.89;68.32;94313.41;4997997;28;20990;-58
2021/12/28 00:32:39;;;;;;;18.73;12.33;;;10.80;96.60;;;10.83;68.90;94322.75;4998003;28;20546;-57
2021/12/28 00:35:07;;;;;;;24.83;15.13;;;10.80;97.10;;;10.81;69.09;94316.81;5003567;28;20450;-57
2021/12/28 00:37:35;;;;;;;23.37;14.10;;;10.80;97.10;;;10.77;69.06;94326.81;4998916;28;21067;-58
2021/12/28 00:40:03;;;;;;;19.93;12.33;;;10.70;97.20;;;10.74;69.22;94311.34;5005972;28;20494;-59
2021/12/28 00:42:31;;;;;;;23.20;13.20;;;10.70;97.40;;;10.73;68.99;94317.56;5000150;28;20482;-57
2021/12/28 00:44:59;;;;;;;18.40;12.00;;;10.70;97.30;;;10.69;69.37;94312.78;4995665;28;20454;-57
2021/12/28 00:47:26;;;;;;;18.97;11.70;;;10.70;97.80;;;10.65;69.43;94312.28;4993289;28;20489;-58
2021/12/28 00:49:53;;;;;;;17.60;11.67;;;10.60;97.40;;;10.62;69.50;94307.31;4998848;28;20994;-58
2021/12/28 00:52:20;;;;;;;17.93;10.30;;;10.60;97.40;;;10.60;69.40;94311.91;5001409;28;20525;-56
2021/12/28 00:54:48;;;;;;;19.03;11.33;;;10.60;97.40;;;10.56;69.73;94313.19;5001522;28;20446;-58
2021/12/28 00:57:15;;;;;;;32.27;11.20;;;10.60;97.60;;;10.53;69.68;94314.34;5002714;28;20525;-58
2021/12/28 00:59:43;;;;;;;15.60;10.17;;;10.50;97.60;;;10.50;70.07;94313.81;5001545;28;20496;-59
2021/12/28 01:02:11;;;;;;;16.50;10.43;;;10.50;97.90;;;10.45;70.33;94321.34;4997860;28;20589;-58
2021/12/28 01:04:38;;;;;;;18.80;11.87;;;10.50;98.00;;;10.42;70.88;94319.00;4999749;28;20462;-57
2021/12/28 01:07:05;;;;;;;14.33;10.90;;;10.40;98.40;;;10.39;70.46;94322.75;5002113;28;20470;-58
2021/12/28 01:09:33;;;;;;;17.23;12.10;;;10.40;98.30;;;10.35;70.95;94311.72;4998222;28;20540;-59
2021/12/28 01:12:01;;;;;;;19.10;13.00;;;10.40;98.70;;;10.35;70.72;94317.00;4996374;28;20574;-58
2021/12/28 01:14:28;;;;;;;21.67;13.33;;;10.30;98.50;;;10.35;70.73;94318.81;4996547;28;20462;-58
2021/12/28 01:16:59;;;;;;;20.50;13.33;;;10.30;98.60;;;10.34;70.73;94330.28;4999795;28;20523;-58
2021/12/28 01:19:26;;;;;;;20.73;14.00;;;10.30;98.60;;;10.34;70.56;94323.22;4999672;28;20485;-57
2021/12/28 01:21:53;;;;;;;23.73;14.90;;;10.30;98.60;;;10.37;70.91;94332.59;5000084;28;20863;-58
2021/12/28 01:24:21;;;;;;;26.87;13.47;;;10.30;98.80;;;10.37;70.88;94327.34;5000915;28;20939;-59
2021/12/28 01:26:48;;;;;;;24.87;14.50;;;10.30;98.70;;;10.37;70.94;94328.16;5001432;28;20478;-58
2021/12/28 01:29:16;;;;;;;22.07;14.17;;;10.40;98.80;;;10.39;70.90;94334.13;5004545;28;20453;-57
2021/12/28 01:31:43;;;;;;;18.70;11.97;;;10.40;98.70;;;10.41;70.88;94326.06;5002834;28;20581;-60
2021/12/28 01:34:12;;;;;;;22.47;14.00;;;10.40;98.70;;;10.44;70.93;94327.56;4999965;28;20967;-58
2021/12/28 01:36:39;;;;;;;23.80;12.33;;;10.40;98.80;;;10.43;70.90;94325.94;4998563;28;20823;-58
2021/12/28 01:39:07;;;;;;;22.70;12.13;;;10.40;98.70;;;10.44;70.85;94319.66;4997587;28;20493;-58
2021/12/28 01:41:35;;;;;;;18.37;11.70;;;10.40;98.70;;;10.46;70.94;94320.38;5000958;28;20471;-56
2021/12/28 01:44:05;;;;;;;18.20;12.90;;;10.40;98.70;;;10.48;70.92;94321.84;5003086;28;20458;-58
2021/12/28 01:46:32;;;;;;;17.33;11.33;;;10.40;98.70;;;10.47;71.04;94319.38;5002852;28;20477;-57
2021/12/28 01:49:00;;;;;;;16.70;11.57;;;10.50;98.90;;;10.47;70.81;94328.09;5002752;28;20441;-56
2021/12/28 01:51:28;;;;;;;17.00;11.97;;;10.40;98.80;;;10.47;70.56;94324.63;5002649;28;20480;-58
2021/12/28 01:53:57;;;;;;;21.97;11.20;;;10.40;98.60;;;10.46;70.42;94323.00;5006763;28;20486;-59
2021/12/28 01:56:26;;;;;;;19.13;11.90;;;10.40;98.60;;;10.42;70.66;94321.63;5008015;28;20477;-58
2021/12/28 01:58:53;;;;;;;11.17;9.93;;;10.40;98.60;;;10.40;71.33;94308.66;5003274;28;20954;-57
2021/12/28 02:01:21;;;;;;;14.90;10.40;;;10.40;99.00;;;10.38;70.79;94319.31;5004552;28;20805;-58
2021/12/28 02:03:48;;;;;;;13.97;10.13;;;10.30;98.70;;;10.38;70.91;94310.59;4998747;28;20469;-59
2021/12/28 02:06:16;;;;;;;15.83;8.87;;;10.30;98.80;;;10.38;70.90;94313.25;5007474;28;20498;-57
2021/12/28 02:08:45;;;;;;;11.23;9.37;;;10.30;98.90;;;10.38;70.93;94311.44;5007204;28;20835;-59
2021/12/28 02:11:12;;;;;;;13.53;8.40;;;10.30;99.00;;;10.38;71.30;94311.44;5003362;28;20481;-56
2021/12/28 02:13:40;;;;;;;8.23;6.97;;;10.30;99.20;;;10.38;71.10;94306.16;5006257;28;20474;-57
2021/12/28 02:16:08;;;;;;;5.93;5.20;;;10.40;99.00;;;10.40;70.73;94313.91;5002897;28;20486;-57
2021/12/28 02:18:35;;;;;;;7.73;5.20;;;10.40;98.90;;;10.43;70.71;94304.91;5001959;28;20476;-58
2021/12/28 02:21:07;;;;;;;10.70;5.43;;;10.40;98.60;;;10.40;70.49;94313.91;5001220;28;21041;-58
2021/12/28 02:23:34;;;;;;;5.20;4.70;;;10.40;98.50;;;10.39;70.54;94307.84;4999880;28;20461;-58
2021/12/28 02:26:01;;;;;;;10.23;5.20;;;10.40;98.60;;;10.39;70.23;94307.84;4997440;28;20474;-56
2021/12/28 02:28:29;;;;;;;8.43;4.50;;;10.40;98.50;;;10.40;70.86;94306.84;5003083;28;20566;-57
2021/12/28 02:30:57;;;;;;;4.90;4.50;;;10.40;98.70;;;10.39;70.12;94317.50;4999302;28;20450;-58
2021/12/28 02:33:25;;;;;;;4.10;3.70;;;10.40;98.40;;;10.37;69.97;94309.75;5003865;28;20545;-58
2021/12/28 02:35:53;;;;;;;5.00;4.43;;;10.30;98.20;;;10.36;70.12;94296.78;5003885;28;20970;-59
2021/12/28 02:38:22;;;;;;;3.80;3.13;;;10.30;98.30;;;10.36;70.26;94304.66;5007308;28;20457;-57
2021/12/28 02:40:49;;;;;;;8.50;4.50;;;10.30;98.40;;;10.38;70.29;94294.84;5000769;28;21017;-56
2021/12/28 02:43:17;;;;;;;4.50;3.30;;;10.30;98.40;;;10.39;70.11;94294.69;5003029;28;20500;-59
2021/12/28 02:45:50;;;;;;;7.17;3.60;;;10.30;98.30;;;10.42;70.05;94300.59;4996857;28;20990;-57
2021/12/28 02:48:17;;;;;;;4.10;3.70;;;10.40;98.20;;;10.42;69.89;94292.72;5002494;28;20449;-58
2021/12/28 02:50:48;;;;;;;6.17;3.57;;;10.40;98.20;;;10.44;69.82;94298.63;5003578;28;20456;-58
2021/12/28 02:53:15;;;;;;;3.60;3.30;;;10.40;98.10;;;10.44;69.94;94296.84;5002718;28;20501;-60
2021/12/28 02:55:44;;;;;;;11.50;4.30;;;10.40;98.00;;;10.46;69.82;94299.34;5003208;28;20468;-58
2021/12/28 02:58:24;;;;;;;6.70;2.90;;;10.40;98.00;;;10.45;69.74;94298.47;5003198;28;20970;-58
2021/12/28 03:00:53;;;;;;;7.47;3.17;;;10.40;97.90;;;10.48;69.63;94313.13;5006026;28;20478;-57
2021/12/28 03:03:22;;;;;;;2.80;2.63;;;10.40;98.00;;;10.49;69.76;94296.41;5004966;28;20450;-57
2021/12/28 03:05:51;;;;;;;11.23;3.70;;;10.50;98.00;;;10.51;69.59;94299.69;5004444;28;20461;-59
2021/12/28 03:08:21;;;;;;;3.87;3.40;;;10.50;97.90;;;10.53;69.65;94309.09;5003411;28;20466;-58
2021/12/28 03:10:49;;;;;;;6.80;3.30;;;10.50;97.90;;;10.53;69.28;94313.50;5005823;28;20466;-57
2021/12/28 03:13:18;;;;;;;6.40;3.33;;;10.50;97.70;;;10.54;69.37;94310.72;5001211;28;20769;-58
2021/12/28 03:15:45;;;;;;;3.03;2.80;;;10.50;97.70;;;10.55;69.40;94312.38;5002500;28;20987;-57
2021/12/28 03:18:12;;;;;;;4.50;2.93;;;10.50;97.80;;;10.57;69.35;94318.28;5001776;28;20947;-58
2021/12/28 03:20:40;;;;;;;5.97;3.43;;;10.50;97.70;;;10.56;69.01;94319.25;5003914;28;20485;-57
2021/12/28 03:23:07;;;;;;;5.33;3.23;;;10.50;97.60;;;10.56;69.14;94313.19;5002474;28;20939;-58
2021/12/28 03:25:35;;;;;;;11.70;3.50;;;10.50;97.50;;;10.58;68.98;94313.84;5005710;28;20462;-57
2021/12/28 03:28:03;;;;;;;10.23;4.27;;;10.50;97.40;;;10.56;69.13;94315.81;4997682;28;20470;-56
2021/12/28 03:30:31;;;;;;;7.80;4.23;;;10.50;97.40;;;10.56;68.91;94310.56;5002839;28;20838;-58
2021/12/28 03:32:58;;;;;;;5.27;3.40;;;10.50;97.40;;;10.54;68.86;94307.28;4995578;28;20490;-58
2021/12/28 03:35:26;;;;;;;6.03;3.80;;;10.50;97.40;;;10.52;69.11;94302.16;4997584;28;20469;-58
2021/12/28 03:37:53;;;;;;;4.23;3.50;;;10.50;97.40;;;10.52;69.04;94306.59;5000326;28;20467;-57
2021/12/28 03:40:20;;;;;;;5.27;3.57;;;10.50;97.40;;;10.51;68.90;94302.31;5002912;28;20850;-58
2021/12/28 03:42:47;;;;;;;5.37;3.30;;;10.50;97.50;;;10.51;69.28;94303.13;5000333;28;20477;-57
2021/12/28 03:45:16;;;;;;;7.20;4.10;;;10.50;97.50;;;10.52;69.07;94306.59;5002429;28;20832;-58
2021/12/28 03:47:43;;;;;;;5.50;4.03;;;10.50;97.40;;;10.51;69.12;94304.94;5004800;28;20527;-57
2021/12/28 03:50:11;;;;;;;13.40;3.70;;;10.50;97.40;;;10.49;69.23;94301.66;5000036;28;20451;-58
2021/12/28 03:52:39;;;;;;;7.13;3.60;;;10.50;97.50;;;10.50;69.18;94303.28;5003612;28;20501;-57
2021/12/28 03:55:07;;;;;;;5.03;4.20;;;10.50;97.40;;;10.49;69.07;94306.91;5006707;28;20930;-57
2021/12/28 03:57:35;;;;;;;5.03;3.23;;;10.40;97.30;;;10.47;69.25;94308.84;5000564;28;20467;-59
2021/12/28 04:00:03;;;;;;;5.53;3.73;;;10.40;97.60;;;10.46;69.27;94309.84;5004637;28;20866;-58
2021/12/28 04:02:32;;;;;;;7.50;3.60;;;10.40;97.50;;;10.46;69.23;94307.22;4996018;28;20485;-58
2021/12/28 04:04:59;;;;;;;7.80;4.03;;;10.40;97.50;;;10.46;69.07;94309.84;4998342;28;20954;-56
2021/12/28 04:07:26;;;;;;;6.30;4.63;;;10.40;97.40;;;10.42;69.20;94316.38;5006624;28;20551;-58
2021/12/28 04:10:02;;;;;;;4.53;4.13;;;10.40;97.40;;;10.39;69.19;94317.50;5001822;28;20459;-59
2021/12/28 04:12:29;;;;;;;13.40;5.20;;;10.40;97.40;;;10.35;69.14;94322.25;5003925;28;20581;-58
2021/12/28 04:14:57;;;;;;;7.10;5.30;;;10.30;97.50;;;10.31;69.30;94315.59;5001418;28;20465;-57
2021/12/28 04:17:24;;;;;;;13.63;6.53;;;10.30;97.60;;;10.35;69.32;94317.00;5005972;28;20839;-59
2021/12/28 04:19:53;;;;;;;9.00;6.43;;;10.30;97.60;;;10.36;69.39;94323.06;5003928;28;20489;-58
2021/12/28 04:22:20;;;;;;;9.17;7.10;;;10.30;97.70;;;10.33;69.62;94316.31;5005278;28;20465;-59
2021/12/28 04:24:47;;;;;;;11.93;7.10;;;10.30;97.70;;;10.33;69.44;94311.06;5000392;28;20841;-58
2021/12/28 04:27:15;;;;;;;9.60;7.40;;;10.30;97.70;;;10.33;69.53;94324.22;4993031;28;20475;-59
2021/12/28 04:29:42;;;;;;;10.73;7.60;;;10.30;97.80;;;10.33;69.67;94326.00;4998833;28;20951;-59
2021/12/28 04:32:10;;;;;;;13.40;8.87;;;10.30;97.80;;;10.34;69.72;94325.03;5000708;28;20477;-57
2021/12/28 04:34:37;;;;;;;10.67;8.00;;;10.30;97.80;;;10.32;69.83;94317.25;5004039;28;20457;-58
2021/12/28 04:37:06;;;;;;;15.03;10.47;;;10.30;97.90;;;10.33;69.71;94313.69;4998925;28;20475;-57
2021/12/28 04:39:33;;;;;;;21.70;10.03;;;10.30;97.90;;;10.33;69.51;94323.38;5000020;28;20455;-58
2021/12/28 04:42:00;;;;;;;14.40;8.73;;;10.30;97.80;;;10.30;69.79;94315.75;4999044;28;20482;-58
2021/12/28 04:44:27;;;;;;;16.30;9.33;;;10.30;97.90;;;10.28;69.82;94321.16;5002668;28;20458;-59
2021/12/28 04:46:55;;;;;;;12.33;9.40;;;10.30;98.00;;;10.28;69.85;94325.59;4997703;28;20480;-58
2021/12/28 04:49:25;;;;;;;17.40;10.03;;;10.30;98.00;;;10.26;69.79;94327.56;4996438;28;20480;-58
2021/12/28 04:51:52;;;;;;;12.90;10.77;;;10.30;98.00;;;10.22;69.88;94327.88;5000388;28;20474;-56
2021/12/28 04:54:21;;;;;;;15.57;10.40;;;10.20;98.10;;;10.19;70.05;94322.06;4997166;28;20451;-58
2021/12/28 04:56:48;;;;;;;25.90;10.90;;;10.20;98.20;;;10.18;70.18;94321.25;4999770;28;20467;-57
2021/12/28 04:59:15;;;;;;;14.40;9.87;;;10.20;98.30;;;10.18;70.25;94316.00;4999487;28;20516;-58
2021/12/28 05:01:43;;;;;;;20.17;11.00;;;10.20;98.40;;;10.19;70.25;94312.41;5001202;28;21046;-58
2021/12/28 05:04:10;;;;;;;15.93;10.30;;;10.20;98.30;;;10.19;70.34;94312.41;5004447;28;20454;-58
2021/12/28 05:06:38;;;;;;;17.13;10.40;;;10.20;98.30;;;10.20;70.40;94321.09;4995074;28;20657;-57
2021/12/28 05:09:06;;;;;;;11.13;9.33;;;10.20;98.50;;;10.19;70.42;94317.66;4993663;28;20463;-57
2021/12/28 05:11:35;;;;;;;18.33;10.00;;;10.20;98.50;;;10.20;70.34;94323.72;5002395;28;20480;-58
2021/12/28 05:14:04;;;;;;;15.73;10.20;;;10.20;98.50;;;10.19;70.48;94322.91;4999404;28;20458;-58
2021/12/28 05:16:33;;;;;;;15.57;9.93;;;10.20;98.50;;;10.17;70.45;94324.84;4998074;28;20480;-57
2021/12/28 05:19:01;;;;;;;14.60;9.87;;;10.20;98.50;;;10.16;70.43;94327.63;5004672;28;20460;-59
2021/12/28 05:21:28;;;;;;;15.77;10.90;;;10.10;98.60;;;10.16;70.26;94323.22;5002622;28;20497;-57
2021/12/28 05:23:55;;;;;;;14.80;10.47;;;10.10;98.50;;;10.15;70.51;94321.56;5001738;28;20462;-58
2021/12/28 05:26:23;;;;;;;13.57;8.80;;;10.10;98.50;;;10.16;70.67;94331.09;5001325;28;20580;-58
2021/12/28 05:28:52;;;;;;;15.70;10.20;;;10.10;98.70;;;10.15;70.42;94326.00;5007672;28;20445;-55
2021/12/28 05:31:19;;;;;;;13.67;10.50;;;10.10;98.50;;;10.13;70.72;94326.13;5008823;28;20481;-58
2021/12/28 05:33:47;;;;;;;17.83;10.80;;;10.10;98.70;;;10.13;70.40;94328.75;4999697;28;20454;-57
2021/12/28 05:36:14;;;;;;;21.57;11.23;;;10.10;98.60;;;10.12;70.74;94332.38;5000461;28;20474;-59
2021/12/28 05:38:42;;;;;;;19.93;10.37;;;10.10;98.60;;;10.12;70.73;94331.53;5003334;28;20534;-58
2021/12/28 05:41:10;;;;;;;14.90;11.43;;;10.10;98.60;;;10.12;70.81;94336.81;5004947;28;20489;-57
2021/12/28 05:43:38;;;;;;;16.97;10.03;;;10.10;98.70;;;10.13;70.69;94338.44;5007075;28;20449;-57
2021/12/28 05:46:06;;;;;;;17.97;11.00;;;10.10;98.70;;;10.14;70.66;94343.53;5002454;28;21021;-59
2021/12/28 05:48:33;;;;;;;13.70;9.87;;;10.10;98.70;;;10.13;70.89;94339.28;5007408;28;20462;-59
2021/12/28 05:51:01;;;;;;;15.93;10.80;;;10.10;98.90;;;10.12;70.80;94345.50;5005265;28;20513;-58
2021/12/28 05:53:28;;;;;;;20.30;11.10;;;10.10;99.10;;;10.10;70.84;94342.22;5003595;28;20781;-58
2021/12/28 05:55:55;;;;;;;13.97;10.80;;;10.10;98.70;;;10.10;70.89;94344.00;5005228;28;20472;-58
2021/12/28 05:58:22;;;;;;;16.40;11.03;;;10.10;98.90;;;10.09;71.00;94344.97;5001734;28;20451;-58
2021/12/28 06:00:50;;;;;;;17.97;11.20;;;10.10;99.00;;;10.11;71.10;94348.28;5000093;28;20486;-58
2021/12/28 06:03:18;;;;;;;15.37;10.00;;;10.10;99.10;;;10.10;70.82;94344.00;5003992;28;20869;-58
2021/12/28 06:05:46;;;;;;;14.53;9.60;;;10.10;99.00;;;10.11;71.11;94345.66;5003266;28;20453;-57
2021/12/28 06:08:13;;;;;;;15.57;11.03;;;10.10;98.90;;;10.10;71.06;94344.00;5006383;28;20493;-59
2021/12/28 06:10:40;;;;;;;17.20;10.30;;;10.10;98.90;;;10.11;70.95;94345.66;5003856;28;20458;-59
2021/12/28 06:13:08;;;;;;;11.67;10.03;;;10.10;98.90;;;10.12;70.72;94349.94;5006506;28;20481;-59
2021/12/28 06:15:35;;;;;;;20.00;10.00;;;10.10;98.90;;;10.12;70.81;94350.75;5003749;28;20462;-60
2021/12/28 06:18:02;;;;;;;19.03;10.67;;;10.10;98.90;;;10.14;70.68;94350.59;5000469;28;20497;-59
2021/12/28 06:20:31;;;;;;;18.00;10.43;;;10.10;98.80;;;10.17;71.00;94351.13;5002946;28;20918;-59
2021/12/28 06:22:59;;;;;;;17.60;11.80;;;10.20;99.00;;;10.23;71.05;94354.97;4996555;28;20470;-58
2021/12/28 06:25:26;;;;;;;24.20;14.67;;;10.20;99.10;;;10.31;70.27;94355.03;4995231;28;20534;-58
2021/12/28 06:27:54;;;;;;;24.73;17.27;;;10.30;98.70;;;10.34;70.18;94360.00;4998692;28;20485;-57
2021/12/28 06:30:21;;;;;;;26.77;19.00;;;10.30;98.40;;;10.36;69.97;94355.44;5004910;28;20465;-58
2021/12/28 06:32:48;;;;;;;28.60;18.00;;;10.40;98.20;;;10.38;69.79;94353.47;5004251;28;20523;-59
2021/12/28 06:35:15;;;;;;;28.67;18.37;;;10.40;98.00;;;10.36;69.62;94355.44;5007817;28;20897;-58
2021/12/28 06:37:44;;;;;;;40.00;21.10;;;10.40;97.90;;;10.31;69.65;94355.03;5005034;28;20471;-59
2021/12/28 06:40:12;;;;;;;31.27;17.00;;;10.30;97.90;;;10.26;69.62;94353.84;5003919;28;20898;-58
2021/12/28 06:42:40;;;;;;;27.43;18.40;;;10.30;97.90;;;10.22;69.94;94354.16;5005008;28;20473;-58
2021/12/28 06:45:08;;;;;;;31.00;18.20;;;10.20;97.90;;;10.20;69.36;94363.97;5006356;28;20501;-57
2021/12/28 06:47:35;;;;;;;39.90;19.63;;;10.20;97.90;;;10.18;69.74;94367.75;5000113;28;20473;-58
2021/12/28 06:50:03;;;;;;;29.53;17.07;;;10.20;97.90;;;10.13;69.43;94370.81;5003049;28;20457;-59
2021/12/28 06:52:30;;;;;;;33.43;17.47;;;10.10;97.80;;;10.05;69.78;94370.72;5003090;28;20482;-58
2021/12/28 06:54:59;;;;;;;40.93;18.97;;;10.10;97.90;;;10.01;69.96;94375.44;5001327;28;20455;-57
2021/12/28 06:57:26;;;;;;;34.30;19.07;;;10.00;98.00;;;10.02;70.01;94374.47;5005504;28;20469;-57
2021/12/28 06:59:53;;;;;;;38.73;18.53;;;10.00;98.00;;;10.02;69.96;94373.63;5004223;28;20461;-59
2021/12/28 07:02:21;;;;;;;25.83;16.10;;;10.00;98.00;;;10.00;69.95;94380.84;5004275;28;21046;-61
2021/12/28 07:04:48;;;;;;;27.47;16.80;;;10.00;98.00;;;9.98;69.93;94378.38;5003317;28;20453;-58
2021/12/28 07:07:15;;;;;;;39.83;19.40;;;10.00;98.00;;;9.97;70.00;94381.16;5007575;28;20481;-60
2021/12/28 07:09:43;;;;;;;32.60;18.13;;;10.00;98.10;;;9.95;70.12;94381.28;5001282;28;20446;-60
2021/12/28 07:12:12;;;;;;;34.70;19.37;;;10.00;98.20;;;9.94;70.17;94379.63;5001644;28;20481;-58
2021/12/28 07:14:39;;;;;;;28.73;19.53;;;10.00;98.30;;;9.96;69.91;94382.09;5001496;28;20458;-59
2021/12/28 07:17:07;;;;;;;36.10;19.30;;;10.00;98.30;;;9.98;70.33;94380.19;5007038;28;20469;-58
2021/12/28 07:19:34;;;;;;;37.77;20.27;;;10.00;98.30;;;10.00;70.10;94375.59;5003947;28;20853;-60
2021/12/28 07:22:01;;;;;;;32.03;19.07;;;10.00;98.30;;;10.02;70.19;94379.72;5003865;28;20869;-59
2021/12/28 07:24:29;;;;;;;27.17;17.90;;;10.00;98.30;;;10.02;70.08;94374.47;5000427;28;20461;-61
2021/12/28 07:26:56;;;;;;;32.07;19.80;;;10.00;98.30;;;10.07;70.11;94383.69;5002849;28;21065;-60
2021/12/28 07:29:25;;;;;;;29.63;18.47;;;10.10;98.30;;;10.08;70.15;94382.72;4998181;28;20454;-59
2021/12/28 07:31:52;;;;;;;28.83;20.27;;;10.10;98.30;;;10.05;69.92;94389.09;4996951;28;21038;-60
2021/12/28 07:34:19;;;;;;;32.40;20.63;;;10.10;98.30;;;10.05;70.08;94384.69;4998530;28;20458;-58
2021/12/28 07:36:47;;;;;;;28.93;19.60;;;10.10;98.30;;;10.08;70.20;94394.06;4996146;28;20951;-60
2021/12/28 07:39:14;;;;;;;32.40;19.77;;;10.00;98.30;;;10.11;70.23;94382.44;4994408;28;20454;-59
2021/12/28 07:41:41;;;;;;;38.47;22.17;;;10.10;98.30;;;10.13;69.93;94385.72;4997258;28;20521;-58
2021/12/28 07:44:09;;;;;;;42.43;24.17;;;10.10;98.20;;;10.13;70.07;94385.72;5003093;28;20465;-59
2021/12/28 07:46:38;;;;;;;39.90;23.27;;;10.10;98.30;;;10.15;70.31;94389.06;5004346;28;20477;-58
2021/12/28 07:49:05;;;;;;;38.53;23.73;;;10.10;98.40;;;10.19;70.20;94391.25;5004648;28;20446;-58
2021/12/28 07:51:33;;;;;;;38.50;23.23;;;10.20;98.50;;;10.26;70.46;94388.81;5004640;28;20483;-59
2021/12/28 07:54:00;;;;;;;42.63;26.70;;;10.20;98.40;;;10.33;70.08;94391.72;5004245;28;20461;-60
2021/12/28 07:56:27;;;;;;;57.80;30.37;;;10.30;98.50;;;10.38;69.89;94390.28;5004900;28;20540;-59
2021/12/28 07:58:55;;;;;;;54.93;31.37;;;10.40;98.30;;;10.43;69.59;94387.22;5001694;28;20462;-60
2021/12/28 08:01:22;;;;;;;49.90;27.47;;;10.40;98.20;;;10.52;69.92;94390.75;4999692;28;20497;-58
2021/12/28 08:03:51;;;;;;;56.53;30.17;;;10.50;98.50;;;10.64;69.51;94393.94;5004496;28;20982;-59
2021/12/28 08:06:18;;;;;;;59.73;28.67;;;10.50;98.20;;;10.72;69.52;94397.47;4997241;28;20481;-59
2021/12/28 08:08:45;;;;;;;45.73;29.00;;;10.70;98.20;;;10.80;69.46;94390.59;5006115;28;20983;-59
2021/12/28 08:11:13;;;;;;;44.10;29.17;;;10.70;98.00;;;10.86;69.00;94390.84;5001062;28;20486;-58
2021/12/28 08:13:40;;;;;;;50.13;29.73;;;10.80;97.80;;;10.93;69.33;94391.06;4992785;28;20455;-58
2021/12/28 08:16:08;;;;;;;47.20;29.17;;;10.90;97.70;;;11.06;69.05;94394.09;4998037;28;20474;-57
2021/12/28 08:18:35;;;;;;;53.77;31.30;;;11.00;97.80;;;11.25;69.02;94402.78;4997619;28;20544;-59
2021/12/28 08:21:03;;;;;;;47.67;30.70;;;11.10;97.70;;;11.42;68.10;94393.97;4996887;28;21017;-58
2021/12/28 08:23:31;;;;;;;46.93;28.90;;;11.30;97.40;;;11.55;67.76;94400.63;4997008;28;20985;-58
2021/12/28 08:25:58;;;;;;;53.67;33.77;;;11.40;97.20;;;11.70;67.42;94395.59;4997092;28;20733;-59
2021/12/28 08:28:25;;;;;;;71.27;39.70;;;11.60;97.00;;;11.87;67.08;94393.81;4999363;28;20887;-59
2021/12/28 08:30:53;;;;;;;66.80;43.57;;;11.80;96.70;;;12.13;66.88;94399.03;5001400;28;20458;-59
2021/12/28 08:33:20;;;;;;;75.60;41.07;;;12.00;96.60;;;12.38;65.84;94399.94;4997691;28;20895;-59
2021/12/28 08:35:47;;;;;;;75.00;44.50;;;12.20;95.90;;;12.67;65.62;94386.28;5000951;28;20460;-58
2021/12/28 08:38:16;;;;;;;69.33;41.70;;;12.50;95.70;;;13.05;64.91;94386.59;5000258;28;20450;-57
2021/12/28 08:40:44;;;;;;;70.67;41.60;;;12.80;95.40;;;13.45;63.86;94397.28;4998718;28;20990;-59
2021/12/28 08:43:11;;;;;;;73.47;42.40;;;13.10;94.80;;;13.84;62.32;94385.09;5000334;28;20491;-58
2021/12/28 08:45:39;;;;;;;62.53;39.93;;;13.50;93.90;;;14.12;60.75;94388.09;4994132;28;20454;-60
2021/12/28 08:48:07;;;;;;;58.27;36.87;;;13.80;92.40;;;14.22;60.72;94387.88;4994726;28;21133;-60
2021/12/28 08:50:35;;;;;;;61.17;36.47;;;14.00;92.30;;;14.27;60.82;94383.72;4992377;28;20453;-60
2021/12/28 08:53:02;;;;;;;71.80;38.57;;;14.00;92.00;;;14.32;60.32;94375.25;5000620;28;20484;-58
2021/12/28 08:55:31;;;;;;;62.03;39.70;;;14.10;91.60;;;14.37;60.56;94380.03;5000737;28;20500;-60
2021/12/28 08:57:58;;;;;;;81.40;45.70;;;14.20;91.50;;;14.41;59.71;94376.03;5003065;28;20469;-59
2021/12/28 09:00:29;;;;;;;75.07;46.63;;;14.20;91.10;;;14.55;60.02;94377.06;5002468;28;20455;-57
2021/12/28 09:02:58;;;;;;;75.93;42.80;;;14.30;91.10;;;14.67;59.75;94379.19;5005288;28;20498;-57
2021/12/28 09:05:25;;;;;;;71.70;43.97;;;14.40;91.10;;;14.63;59.73;94375.22;5008701;28;20447;-59
2021/12/28 09:07:53;;;;;;;83.67;47.87;;;14.40;91.10;;;14.49;59.48;94371.50;5007225;28;20855;-59
2021/12/28 09:10:20;;;;;;;86.00;48.60;;;14.40;90.60;;;14.33;60.52;94368.97;4997658;28;20470;-57
2021/12/28 09:12:49;;;;;;;73.67;49.33;;;14.20;90.90;;;14.19;60.42;94370.53;5003647;28;21087;-58
2021/12/28 09:15:16;;;;;;;81.50;50.60;;;14.10;91.00;;;14.10;60.82;94384.81;5003053;28;20461;-59
2021/12/28 09:17:43;;;;;;;85.50;52.80;;;14.00;91.20;;;14.03;61.10;94368.78;5007311;28;20565;-58
2021/12/28 09:20:13;;;;;;;76.97;49.43;;;14.00;91.50;;;14.02;61.09;94374.25;5010759;28;20512;-59
2021/12/28 09:22:40;;;;;;;80.07;49.20;;;13.90;91.40;;;13.91;60.77;94365.72;5005099;28;20496;-60
2021/12/28 09:25:09;;;;;;;85.97;51.20;;;13.80;91.30;;;13.86;61.17;94365.41;5006644;28;20464;-59
2021/12/28 09:27:38;;;;;;;78.33;47.77;;;13.80;91.60;;;13.88;61.19;94368.72;5007973;28;20500;-58
2021/12/28 09:30:08;;;;;;;79.20;46.90;;;13.80;91.60;;;13.92;60.98;94372.66;5002231;28;20474;-58
2021/12/28 09:32:36;;;;;;;78.20;45.20;;;13.80;91.60;;;13.87;61.19;94371.53;5005479;28;20485;-58
2021/12/28 09:35:03;;;;;;;75.60;43.10;;;13.80;91.70;;;13.78;61.20;94363.63;4996721;28;20478;-58
2021/12/28 09:37:32;;;;;;;71.93;42.07;;;13.70;91.50;;;13.76;61.20;94370.09;5001422;28;20488;-58
2021/12/28 09:40:00;;;;;;;69.73;40.20;;;13.70;91.80;;;13.95;61.28;94361.72;5004315;28;21045;-58
2021/12/28 09:42:27;;;;;;;60.37;37.37;;;13.70;91.90;;;14.23;60.97;94357.78;5004091;28;20490;-57
2021/12/28 09:44:54;;;;;;;54.20;36.20;;;14.00;91.80;;;14.53;59.79;94353.44;5001856;28;20468;-58
2021/12/28 09:47:23;;;;;;;59.23;34.10;;;14.20;91.10;;;14.83;59.88;94346.44;5002558;28;20488;-56
2021/12/28 09:49:50;;;;;;;45.97;31.27;;;14.50;91.20;;;15.08;58.51;94350.72;5003809;28;20438;-59
2021/12/28 09:52:18;;;;;;;43.57;30.40;;;14.70;90.40;;;15.19;58.66;94347.59;4997808;28;20469;-59
2021/12/28 09:54:46;;;;;;;38.90;26.10;;;14.90;90.20;;;15.26;56.71;94337.94;4998995;28;20454;-60
2021/12/28 09:57:16;;;;;;;44.67;29.60;;;15.00;88.00;;;15.24;56.59;94353.19;4995991;28;20477;-59
2021/12/28 09:59:44;;;;;;;43.00;28.60;;;15.00;86.70;;;15.19;57.46;94348.41;4998318;28;20824;-58
2021/12/28 10:02:11;;;;;;;39.67;27.60;;;15.00;88.00;;;15.15;56.62;94347.16;4992720;28;20905;-58
2021/12/28 10:04:58;;;;;;;45.10;27.60;;;15.00;86.20;;;15.06;57.42;94351.69;4996365;28;20461;-59
2021/12/28 10:07:26;;;;;;;41.80;27.73;;;14.90;87.50;;;15.02;57.73;94353.06;5001944;28;20469;-59
2021/12/28 10:09:54;;;;;;;42.23;26.20;;;14.80;88.10;;;15.05;58.02;94346.59;5003846;28;20971;-58
2021/12/28 10:12:29;;;;;;;52.87;25.07;;;14.80;88.30;;;15.06;57.84;94351.69;4999570;28;20493;-60
2021/12/28 10:15:00;;;;;;;44.23;28.73;;;14.80;88.10;;;15.03;57.83;94341.47;5006484;28;20445;-59